Time;durP1;ratioP1;P1;durP2;ratioP2;P2;SDS_P1;SDS_P2;PMS_P1;PMS_P2;Temp;Humidity;BMP_temperature;BMP_pressure;BME280_temperature;BME280_humidity;BME280_pressure;Samples;Min_cycle;Max_cycle;Signal;HPM_P1;HPM_P2
2022/08/13 00:00:38;;;;;;;1.88;1.15;;;22.80;48.00;;;;;;2074500;28;20477;-70
2022/08/13 00:01:40;;;;;;;2.95;1.30;;;22.80;47.90;;;;;;2074656;28;20105;-70
2022/08/13 00:02:43;;;;;;;2.45;1.30;;;22.70;47.90;;;;;;2076525;28;20025;-70
2022/08/13 00:03:44;;;;;;;1.80;1.27;;;22.70;48.30;;;;;;2076366;28;20021;-70
2022/08/13 00:05:00;;;;;;;1.88;1.20;;;22.70;48.30;;;;;;2077503;28;20022;-70
2022/08/13 00:06:08;;;;;;;2.88;1.17;;;22.70;48.50;;;;;;2073752;28;20097;-71
2022/08/13 00:07:09;;;;;;;1.30;1.13;;;22.70;48.80;;;;;;2073044;28;20026;-71
2022/08/13 00:08:09;;;;;;;1.73;1.20;;;22.70;48.50;;;;;;2074219;28;20030;-71
2022/08/13 00:09:14;;;;;;;1.38;1.27;;;22.70;48.90;;;;;;2075592;28;20420;-71
2022/08/13 00:12:56;;;;;;;0.93;0.82;;;22.60;49.20;;;;;;2077254;28;20457;-71
2022/08/13 00:13:57;;;;;;;1.13;0.93;;;22.60;49.40;;;;;;2074094;28;20013;-71
2022/08/13 00:15:00;;;;;;;2.05;1.30;;;22.50;49.30;;;;;;2073910;28;20052;-71
2022/08/13 00:16:01;;;;;;;1.30;1.17;;;22.50;49.70;;;;;;2074706;28;20105;-71
2022/08/13 00:17:04;;;;;;;1.65;1.10;;;22.50;49.80;;;;;;2073086;28;20088;-71
2022/08/13 00:18:10;;;;;;;1.83;1.38;;;22.50;50.00;;;;;;2076980;28;20057;-71
2022/08/13 00:19:10;;;;;;;1.85;1.30;;;22.50;50.10;;;;;;2076034;28;20390;-71
2022/08/13 00:20:11;;;;;;;3.95;1.40;;;22.40;49.60;;;;;;2074791;28;20036;-71
2022/08/13 00:21:12;;;;;;;1.60;1.10;;;22.40;50.10;;;;;;2075942;28;20110;-71
2022/08/13 00:22:12;;;;;;;1.85;1.30;;;22.40;50.50;;;;;;2076255;28;20033;-71
2022/08/13 00:23:14;;;;;;;1.67;1.30;;;22.40;50.10;;;;;;2074941;28;20033;-71
2022/08/13 00:24:15;;;;;;;2.00;1.20;;;22.40;50.00;;;;;;2074365;28;20030;-71
2022/08/13 00:25:16;;;;;;;1.83;1.30;;;22.30;50.30;;;;;;2075043;28;20139;-71
2022/08/13 00:26:17;;;;;;;3.55;1.95;;;22.30;50.20;;;;;;2075739;28;20409;-70
2022/08/13 00:27:17;;;;;;;3.60;1.15;;;22.30;50.40;;;;;;2073684;28;20018;-70
2022/08/13 00:28:20;;;;;;;1.80;1.20;;;22.20;50.30;;;;;;2074069;28;20018;-70
2022/08/13 00:29:20;;;;;;;1.92;1.20;;;22.20;50.40;;;;;;2075781;28;20367;-70
2022/08/13 00:30:21;;;;;;;1.25;1.15;;;22.20;50.50;;;;;;2074813;28;20041;-70
2022/08/13 00:31:22;;;;;;;1.35;1.17;;;22.10;50.60;;;;;;2075678;28;20080;-70
2022/08/13 00:32:27;;;;;;;2.45;1.05;;;22.10;50.30;;;;;;2074607;28;20026;-70
2022/08/13 00:33:28;;;;;;;3.63;1.50;;;22.10;50.20;;;;;;2073434;28;20076;-70
2022/08/13 00:34:28;;;;;;;4.35;1.52;;;22.10;50.80;;;;;;2075822;28;20593;-71
2022/08/13 00:35:29;;;;;;;1.70;1.08;;;22.10;50.80;;;;;;2074712;28;20029;-71
2022/08/13 00:36:31;;;;;;;2.38;1.52;;;22.10;51.00;;;;;;2076667;28;20061;-70
2022/08/13 00:37:32;;;;;;;1.30;1.20;;;22.00;50.80;;;;;;2077074;28;20026;-70
2022/08/13 00:38:32;;;;;;;2.60;1.33;;;22.00;51.30;;;;;;2076451;28;20029;-70
2022/08/13 00:39:33;;;;;;;2.58;1.15;;;22.00;51.60;;;;;;2076080;28;20052;-70
2022/08/13 00:40:33;;;;;;;3.47;1.40;;;22.00;51.80;;;;;;2073556;28;20390;-70
2022/08/13 00:41:38;;;;;;;1.48;1.10;;;21.90;51.20;;;;;;2076095;28;20030;-70
2022/08/13 00:42:39;;;;;;;3.13;1.45;;;21.90;51.50;;;;;;2075813;28;20009;-70
2022/08/13 00:43:40;;;;;;;1.65;1.30;;;21.90;51.20;;;;;;2076442;28;20100;-70
2022/08/13 00:44:40;;;;;;;1.58;1.20;;;21.90;51.20;;;;;;2075038;28;20097;-70
2022/08/13 00:45:41;;;;;;;4.03;1.20;;;21.80;51.40;;;;;;2074887;28;20014;-70
2022/08/13 00:46:43;;;;;;;3.20;1.20;;;21.80;52.10;;;;;;2075701;28;20022;-70
2022/08/13 00:49:05;;;;;;;2.00;1.30;;;21.80;51.70;;;;;;2074382;28;20030;-70
2022/08/13 00:50:06;;;;;;;4.07;1.27;;;21.70;51.40;;;;;;2075679;28;20029;-70
2022/08/13 00:51:09;;;;;;;1.77;1.20;;;21.70;52.10;;;;;;2074291;28;20473;-70
2022/08/13 00:52:10;;;;;;;1.52;1.17;;;21.70;52.30;;;;;;2076096;28;20508;-70
2022/08/13 00:53:17;;;;;;;2.58;1.35;;;21.70;51.90;;;;;;2077642;28;20489;-70
2022/08/13 00:54:17;;;;;;;5.03;1.10;;;21.70;52.50;;;;;;2072245;28;20026;-70
2022/08/13 00:55:20;;;;;;;1.55;1.20;;;21.60;53.00;;;;;;2073585;28;20030;-70
2022/08/13 00:56:24;;;;;;;2.75;1.40;;;21.60;52.70;;;;;;2072154;28;20034;-70
2022/08/13 00:57:24;;;;;;;2.50;1.50;;;21.60;52.90;;;;;;2074853;28;20501;-70
2022/08/13 00:58:27;;;;;;;2.53;1.38;;;21.60;52.60;;;;;;2074933;28;20416;-70
2022/08/13 00:59:28;;;;;;;1.58;1.10;;;21.60;52.50;;;;;;2076657;28;20512;-70
2022/08/13 01:00:29;;;;;;;1.13;1.10;;;21.50;52.50;;;;;;2074769;28;20713;-70
2022/08/13 01:01:30;;;;;;;1.75;1.15;;;21.50;52.40;;;;;;2075433;28;20476;-70
2022/08/13 01:02:31;;;;;;;3.50;1.40;;;21.50;52.60;;;;;;2075111;28;20030;-70
2022/08/13 01:03:34;;;;;;;2.70;1.42;;;21.40;53.00;;;;;;2076328;28;20022;-70
2022/08/13 01:04:35;;;;;;;6.60;1.40;;;21.40;53.10;;;;;;2076253;28;20025;-70
2022/08/13 01:05:37;;;;;;;1.33;1.23;;;21.40;53.40;;;;;;2073914;28;20034;-70
2022/08/13 01:06:38;;;;;;;2.00;1.15;;;21.40;53.10;;;;;;2074171;28;20548;-71
2022/08/13 01:07:43;;;;;;;1.48;1.30;;;21.40;53.20;;;;;;2074696;28;20431;-71
2022/08/13 01:08:44;;;;;;;2.60;1.15;;;21.40;53.50;;;;;;2075398;28;20484;-70
2022/08/13 01:09:45;;;;;;;1.33;1.23;;;21.30;53.20;;;;;;2075151;28;20037;-70
2022/08/13 01:10:50;;;;;;;2.28;1.10;;;21.30;53.40;;;;;;2072066;28;20068;-70
2022/08/13 01:11:51;;;;;;;1.38;1.27;;;21.30;53.40;;;;;;2074617;28;20397;-70
2022/08/13 01:12:53;;;;;;;1.20;1.10;;;21.30;53.80;;;;;;2073842;28;20033;-70
2022/08/13 01:13:58;;;;;;;0.98;0.98;;;21.30;54.10;;;;;;2075272;28;20116;-70
2022/08/13 01:15:02;;;;;;;3.50;1.30;;;21.30;54.20;;;;;;2074597;28;20022;-70
2022/08/13 01:16:06;;;;;;;1.50;1.40;;;21.20;54.30;;;;;;2072187;28;20026;-70
2022/08/13 01:17:11;;;;;;;1.48;1.10;;;21.20;54.50;;;;;;2075112;28;20034;-70
2022/08/13 01:18:13;;;;;;;2.65;1.25;;;21.20;53.90;;;;;;2074207;28;20022;-71
2022/08/13 01:19:14;;;;;;;2.00;1.20;;;21.10;54.10;;;;;;2074643;28;20072;-71
2022/08/13 01:20:20;;;;;;;2.00;1.20;;;21.10;54.30;;;;;;2075807;28;20092;-71
2022/08/13 01:21:23;;;;;;;1.55;1.15;;;21.10;54.70;;;;;;2075447;28;20152;-71
2022/08/13 01:22:25;;;;;;;1.75;1.40;;;21.10;54.70;;;;;;2076739;28;20399;-71
2022/08/13 01:23:28;;;;;;;2.67;1.05;;;21.10;54.80;;;;;;2074062;28;20022;-71
2022/08/13 01:24:29;;;;;;;2.80;1.40;;;21.00;54.90;;;;;;2074916;28;20495;-71
2022/08/13 01:25:31;;;;;;;2.97;1.50;;;21.00;54.60;;;;;;2073208;28;20021;-71
2022/08/13 01:26:32;;;;;;;1.42;1.33;;;21.00;55.20;;;;;;2078021;28;20037;-70
2022/08/13 01:27:39;;;;;;;1.35;1.25;;;21.00;55.60;;;;;;2073800;28;20029;-71
2022/08/13 01:28:40;;;;;;;4.70;1.70;;;21.00;55.40;;;;;;2076243;28;20017;-71
2022/08/13 01:29:40;;;;;;;1.60;1.50;;;21.00;55.40;;;;;;2076466;28;20048;-71
2022/08/13 01:30:46;;;;;;;2.00;1.80;;;21.00;55.20;;;;;;2074470;28;20032;-70
2022/08/13 01:31:47;;;;;;;2.03;1.58;;;20.90;55.60;;;;;;2071301;28;20081;-70
2022/08/13 01:32:48;;;;;;;2.47;1.73;;;20.90;55.00;;;;;;2075308;28;20032;-70
2022/08/13 01:33:59;;;;;;;3.05;1.75;;;20.90;55.30;;;;;;2073652;28;20030;-70
2022/08/13 01:35:00;;;;;;;3.97;1.80;;;20.90;55.50;;;;;;2071928;28;20022;-70
2022/08/13 01:36:06;;;;;;;3.97;1.83;;;20.80;55.60;;;;;;2072635;28;20021;-70
2022/08/13 01:37:06;;;;;;;1.48;1.38;;;20.80;56.00;;;;;;2073316;28;20060;-70
2022/08/13 01:38:08;;;;;;;3.85;1.70;;;20.80;55.30;;;;;;2074815;28;20022;-70
2022/08/13 01:39:10;;;;;;;2.97;1.70;;;20.80;55.90;;;;;;2076828;28;20067;-70
2022/08/13 01:40:11;;;;;;;4.47;1.58;;;20.80;56.10;;;;;;2074021;28;20540;-71
2022/08/13 01:41:12;;;;;;;2.55;1.70;;;20.70;56.40;;;;;;2075183;28;20822;-71
2022/08/13 01:42:22;;;;;;;2.53;1.52;;;20.70;56.10;;;;;;2074823;28;20014;-71
2022/08/13 01:43:28;;;;;;;4.95;1.60;;;20.70;56.60;;;;;;2070486;28;20054;-71
2022/08/13 01:44:32;;;;;;;2.72;1.40;;;20.70;56.30;;;;;;2074965;28;20109;-71
2022/08/13 01:45:34;;;;;;;1.50;1.40;;;20.70;55.80;;;;;;2072704;28;20024;-71
2022/08/13 01:50:36;;;;;;;3.05;1.38;;;20.50;56.90;;;;;;2074989;28;20034;-71
2022/08/13 01:51:37;;;;;;;1.77;1.63;;;20.50;56.70;;;;;;2073393;28;20430;-71
2022/08/13 01:52:42;;;;;;;2.13;1.58;;;20.50;57.20;;;;;;2076645;28;20029;-71
2022/08/13 01:53:46;;;;;;;2.47;1.15;;;20.40;57.80;;;;;;2073086;28;20026;-71
2022/08/13 01:54:47;;;;;;;1.48;1.20;;;20.40;57.60;;;;;;2072057;28;20573;-71
2022/08/13 01:55:54;;;;;;;1.30;1.20;;;20.40;57.50;;;;;;2078663;28;20033;-70
2022/08/13 01:56:57;;;;;;;2.00;1.63;;;20.40;57.70;;;;;;2075871;28;20033;-70
2022/08/13 01:57:58;;;;;;;1.77;1.50;;;20.40;58.10;;;;;;2075583;28;20014;-70
2022/08/13 01:59:02;;;;;;;1.73;1.27;;;20.40;58.20;;;;;;2074249;28;20022;-70
2022/08/13 02:00:06;;;;;;;1.83;1.38;;;20.40;57.90;;;;;;2073328;28;20018;-70
2022/08/13 02:01:06;;;;;;;2.38;1.40;;;20.30;58.30;;;;;;2073486;28;20080;-70
2022/08/13 02:02:11;;;;;;;3.15;1.40;;;20.30;58.60;;;;;;2073416;28;20542;-70
2022/08/13 02:03:13;;;;;;;2.20;1.40;;;20.30;58.00;;;;;;2072955;28;20026;-70
2022/08/13 02:04:13;;;;;;;2.80;1.20;;;20.30;58.40;;;;;;2072637;28;20018;-70
2022/08/13 02:05:14;;;;;;;4.70;1.52;;;20.30;58.90;;;;;;2073533;28;20025;-70
2022/08/13 02:06:21;;;;;;;1.27;0.98;;;20.20;59.00;;;;;;2071703;28;20038;-70
2022/08/13 02:07:22;;;;;;;1.50;1.40;;;20.20;59.10;;;;;;2073814;28;20430;-70
2022/08/13 02:08:24;;;;;;;3.80;1.52;;;20.20;58.80;;;;;;2073668;28;20083;-70
2022/08/13 02:09:25;;;;;;;1.52;1.30;;;20.20;59.00;;;;;;2073945;28;20499;-71
2022/08/13 02:10:26;;;;;;;2.92;1.40;;;20.10;59.50;;;;;;2072889;28;20054;-71
2022/08/13 02:11:34;;;;;;;4.95;1.52;;;20.20;59.70;;;;;;2071608;28;20037;-71
2022/08/13 02:12:36;;;;;;;3.47;1.40;;;20.10;59.90;;;;;;2072425;28;20611;-71
2022/08/13 02:13:37;;;;;;;3.15;1.45;;;20.10;59.60;;;;;;2072829;28;20393;-71
2022/08/13 02:14:42;;;;;;;2.03;1.38;;;20.10;59.80;;;;;;2075684;28;20024;-71
2022/08/13 02:15:48;;;;;;;1.27;1.15;;;20.00;59.80;;;;;;2075733;28;20013;-71
2022/08/13 02:16:49;;;;;;;1.92;1.35;;;20.00;60.20;;;;;;2072344;28;20026;-70
2022/08/13 02:17:50;;;;;;;3.47;1.40;;;20.00;59.30;;;;;;2073846;28;20026;-71
2022/08/13 02:18:52;;;;;;;1.40;1.15;;;20.00;59.80;;;;;;2071485;28;20018;-70
2022/08/13 02:19:54;;;;;;;2.33;1.15;;;19.90;60.10;;;;;;2072314;28;20462;-70
2022/08/13 02:20:57;;;;;;;1.80;1.23;;;19.90;60.60;;;;;;2074038;28;20482;-70
2022/08/13 02:21:58;;;;;;;1.73;1.17;;;19.90;60.30;;;;;;2073321;28;20013;-70
2022/08/13 02:23:00;;;;;;;3.25;1.20;;;19.90;59.90;;;;;;2075646;28;20029;-70
2022/08/13 02:24:03;;;;;;;2.33;1.25;;;19.90;59.60;;;;;;2075321;28;20037;-70
2022/08/13 02:25:05;;;;;;;1.65;1.55;;;19.90;60.70;;;;;;2073042;28;20457;-71
2022/08/13 02:26:07;;;;;;;2.53;1.30;;;19.80;60.60;;;;;;2072292;28;20064;-71
2022/08/13 02:27:08;;;;;;;1.67;1.30;;;19.80;60.50;;;;;;2074143;28;20033;-71
2022/08/13 02:28:10;;;;;;;3.67;1.60;;;19.90;60.90;;;;;;2074072;28;20710;-71
2022/08/13 02:29:12;;;;;;;1.52;1.30;;;19.80;60.50;;;;;;2075827;28;20022;-71
2022/08/13 02:30:17;;;;;;;3.97;1.38;;;19.80;61.20;;;;;;2074931;28;20613;-71
2022/08/13 02:31:18;;;;;;;2.25;1.38;;;19.80;61.40;;;;;;2072807;28;20026;-71
2022/08/13 02:32:18;;;;;;;3.10;1.20;;;19.80;61.10;;;;;;2074947;28;20018;-70
2022/08/13 02:33:20;;;;;;;4.65;1.52;;;19.70;62.30;;;;;;2073218;28;20571;-70
2022/08/13 02:34:21;;;;;;;1.50;1.40;;;19.70;62.80;;;;;;2074883;28;20029;-70
2022/08/13 02:35:21;;;;;;;4.10;1.75;;;19.70;62.10;;;;;;2074007;28;20021;-70
2022/08/13 02:36:23;;;;;;;4.95;1.70;;;19.70;61.80;;;;;;2073303;28;20093;-70
2022/08/13 02:37:24;;;;;;;2.22;1.40;;;19.70;61.50;;;;;;2074153;28;20458;-70
2022/08/13 02:38:25;;;;;;;3.50;1.65;;;19.60;61.40;;;;;;2075151;28;20509;-70
2022/08/13 02:39:27;;;;;;;4.43;1.77;;;19.60;61.20;;;;;;2072715;28;20093;-70
2022/08/13 02:41:48;;;;;;;3.22;1.60;;;19.60;61.00;;;;;;2073753;28;20022;-71
2022/08/13 02:42:49;;;;;;;6.30;1.70;;;19.60;60.80;;;;;;2074651;28;20449;-70
2022/08/13 02:43:50;;;;;;;2.08;1.70;;;19.60;60.80;;;;;;2071586;28;20057;-70
2022/08/13 02:44:51;;;;;;;4.88;1.88;;;19.60;60.70;;;;;;2074822;28;20029;-71
2022/08/13 02:45:55;;;;;;;6.95;1.67;;;19.70;60.70;;;;;;2071651;28;20054;-70
2022/08/13 02:46:56;;;;;;;3.45;1.58;;;19.70;61.00;;;;;;2075348;28;20116;-70
2022/08/13 02:47:57;;;;;;;2.17;1.73;;;19.70;60.80;;;;;;2077923;28;20026;-70
2022/08/13 02:49:01;;;;;;;6.78;1.67;;;19.70;60.50;;;;;;2074935;28;20029;-70
2022/08/13 02:50:02;;;;;;;2.08;1.20;;;19.70;60.70;;;;;;2074908;28;20028;-70
2022/08/13 02:51:03;;;;;;;5.45;1.90;;;19.70;60.60;;;;;;2073275;28;20500;-70
2022/08/13 02:52:04;;;;;;;3.67;1.38;;;19.80;60.80;;;;;;2073677;28;20025;-70
2022/08/13 02:53:05;;;;;;;4.05;1.45;;;19.80;60.70;;;;;;2073792;28;20037;-70
2022/08/13 02:54:06;;;;;;;10.38;1.45;;;19.80;60.70;;;;;;2074385;28;20022;-70
2022/08/13 02:55:08;;;;;;;1.45;1.20;;;19.80;60.30;;;;;;2074014;28;20497;-70
2022/08/13 02:56:08;;;;;;;4.38;1.52;;;19.80;60.20;;;;;;2076611;28;20029;-70
2022/08/13 02:57:10;;;;;;;2.03;1.40;;;19.80;60.70;;;;;;2073453;28;20026;-70
2022/08/13 02:58:10;;;;;;;2.30;1.70;;;19.90;60.60;;;;;;2074277;28;20030;-70
2022/08/13 02:59:11;;;;;;;1.40;1.30;;;19.90;61.00;;;;;;2072845;28;20030;-70
2022/08/13 03:00:13;;;;;;;2.47;1.50;;;19.90;61.30;;;;;;2072460;28;20026;-70
2022/08/13 03:01:14;;;;;;;4.03;1.80;;;19.90;61.60;;;;;;2074196;28;20040;-70
2022/08/13 03:02:15;;;;;;;2.20;1.52;;;19.90;61.60;;;;;;2073958;28;20125;-70
2022/08/13 03:03:17;;;;;;;2.65;1.65;;;19.90;61.80;;;;;;2073111;28;20026;-71
2022/08/13 03:04:18;;;;;;;2.72;1.55;;;19.90;61.70;;;;;;2071802;28;20075;-71
2022/08/13 03:05:19;;;;;;;4.45;1.92;;;19.90;61.90;;;;;;2074457;28;20465;-70
2022/08/13 03:06:21;;;;;;;2.40;1.35;;;19.90;62.10;;;;;;2073831;28;20017;-70
2022/08/13 03:07:22;;;;;;;2.20;1.52;;;19.90;62.00;;;;;;2073902;28;20022;-70
2022/08/13 03:08:22;;;;;;;3.22;1.48;;;19.90;61.20;;;;;;2074546;28;20021;-71
2022/08/13 03:09:23;;;;;;;4.28;1.38;;;19.90;62.00;;;;;;2072880;28;20025;-71
2022/08/13 03:10:27;;;;;;;1.80;1.45;;;19.90;62.70;;;;;;2075820;28;20504;-71
2022/08/13 03:11:29;;;;;;;1.65;1.20;;;19.90;61.50;;;;;;2073907;28;20029;-71
2022/08/13 03:12:32;;;;;;;4.18;1.67;;;19.90;60.90;;;;;;2073046;28;20029;-71
2022/08/13 03:13:35;;;;;;;1.60;1.50;;;19.90;61.90;;;;;;2072005;28;20026;-71
2022/08/13 03:14:37;;;;;;;2.83;1.80;;;19.90;61.90;;;;;;2072986;28;20084;-71
2022/08/13 03:15:38;;;;;;;2.65;1.35;;;19.90;62.40;;;;;;2075799;28;20014;-71
2022/08/13 03:16:39;;;;;;;1.95;1.38;;;19.90;61.80;;;;;;2072025;28;20013;-71
2022/08/13 03:17:41;;;;;;;3.00;1.45;;;19.90;61.00;;;;;;2074840;28;20661;-71
2022/08/13 03:18:42;;;;;;;2.67;1.58;;;19.90;60.90;;;;;;2074273;28;20022;-71
2022/08/13 03:19:43;;;;;;;2.85;1.52;;;19.90;61.10;;;;;;2073412;28;20029;-71
2022/08/13 03:20:43;;;;;;;1.60;1.50;;;19.90;61.30;;;;;;2074368;28;20044;-71
2022/08/13 03:21:44;;;;;;;1.88;1.38;;;19.90;60.70;;;;;;2076353;28;20064;-71
2022/08/13 03:22:55;;;;;;;3.10;1.50;;;19.90;61.30;;;;;;2072596;28;20033;-71
2022/08/13 03:23:56;;;;;;;2.55;1.42;;;19.90;61.90;;;;;;2075813;28;20048;-71
2022/08/13 03:24:57;;;;;;;1.58;1.48;;;19.90;61.30;;;;;;2070436;28;20022;-71
2022/08/13 03:25:57;;;;;;;3.15;1.60;;;19.80;60.80;;;;;;2074789;28;20033;-71
2022/08/13 03:26:59;;;;;;;2.50;1.63;;;19.90;62.00;;;;;;2075295;28;20025;-71
2022/08/13 03:28:00;;;;;;;6.63;1.63;;;19.80;61.40;;;;;;2075590;28;20353;-71
2022/08/13 03:29:03;;;;;;;5.82;1.70;;;19.80;62.30;;;;;;2077757;28;20512;-71
2022/08/13 03:30:04;;;;;;;4.85;1.60;;;19.80;63.60;;;;;;2077482;28;20535;-71
2022/08/13 03:31:05;;;;;;;4.72;1.77;;;19.80;62.10;;;;;;2075869;28;20040;-71
2022/08/13 03:32:06;;;;;;;6.95;1.77;;;19.80;63.20;;;;;;2076814;28;20055;-71
2022/08/13 03:33:10;;;;;;;1.95;1.80;;;19.70;63.10;;;;;;2075663;28;20055;-71
2022/08/13 03:34:11;;;;;;;2.03;1.33;;;19.70;62.90;;;;;;2073655;28;20034;-71
2022/08/13 03:35:17;;;;;;;2.85;1.50;;;19.80;62.90;;;;;;2077818;28;20057;-71
2022/08/13 03:36:18;;;;;;;3.85;1.50;;;19.70;62.60;;;;;;2072614;28;20029;-71
2022/08/13 03:37:18;;;;;;;3.25;1.45;;;19.70;63.90;;;;;;2078793;28;20021;-71
2022/08/13 03:38:19;;;;;;;4.85;1.30;;;19.70;63.80;;;;;;2076088;28;20029;-70
2022/08/13 03:39:19;;;;;;;2.17;1.35;;;19.60;63.70;;;;;;2074741;28;20118;-71
2022/08/13 03:41:00;;;;;;;4.03;1.65;;;19.60;64.50;;;;;;2074972;28;20018;-71
2022/08/13 03:41:46;;;;;;;4.97;1.50;;;19.60;64.20;;;;;;2074500;28;20056;-71
2022/08/13 03:42:49;;;;;;;3.20;1.52;;;19.60;63.40;;;;;;2075418;28;20018;-71
2022/08/13 03:43:49;;;;;;;2.60;1.48;;;19.60;64.50;;;;;;2073208;28;20108;-71
2022/08/13 03:44:50;;;;;;;2.22;1.30;;;19.60;63.50;;;;;;2076727;28;20022;-71
2022/08/13 03:45:52;;;;;;;4.43;1.73;;;19.60;64.60;;;;;;2075984;28;20024;-71
2022/08/13 03:46:53;;;;;;;3.25;1.30;;;19.60;64.80;;;;;;2075868;28;20516;-71
2022/08/13 03:47:55;;;;;;;2.67;1.33;;;19.50;65.40;;;;;;2077875;28;20465;-71
2022/08/13 03:48:55;;;;;;;1.88;1.70;;;19.50;65.00;;;;;;2075454;28;20076;-71
2022/08/13 03:49:56;;;;;;;1.77;1.17;;;19.50;65.40;;;;;;2077809;28;20101;-71
2022/08/13 03:51:00;;;;;;;2.53;1.60;;;19.50;65.70;;;;;;2076025;28;20026;-71
2022/08/13 03:52:01;;;;;;;2.35;1.42;;;19.50;65.30;;;;;;2076235;28;20018;-71
2022/08/13 03:53:04;;;;;;;3.53;1.40;;;19.50;65.40;;;;;;2074936;28;20071;-71
2022/08/13 03:54:06;;;;;;;5.65;1.55;;;19.50;65.90;;;;;;2074946;28;20045;-71
2022/08/13 03:55:15;;;;;;;1.27;1.10;;;19.40;66.40;;;;;;2072543;28;20454;-71
2022/08/13 03:56:18;;;;;;;4.22;1.50;;;19.40;66.60;;;;;;2076438;28;20397;-71
2022/08/13 03:57:19;;;;;;;1.55;1.45;;;19.40;65.60;;;;;;2075200;28;20014;-71
2022/08/13 03:58:20;;;;;;;1.38;1.25;;;19.40;65.20;;;;;;2075208;28;20044;-71
2022/08/13 03:59:21;;;;;;;1.65;1.27;;;19.40;65.60;;;;;;2075887;28;20014;-71
2022/08/13 04:00:22;;;;;;;5.60;1.30;;;19.30;65.00;;;;;;2074278;28;20013;-71
2022/08/13 04:01:22;;;;;;;2.10;1.48;;;19.30;65.00;;;;;;2077648;28;20020;-71
2022/08/13 04:02:23;;;;;;;4.55;1.30;;;19.30;66.30;;;;;;2075037;28;20022;-71
2022/08/13 04:03:28;;;;;;;2.42;1.33;;;19.30;66.70;;;;;;2074915;28;20509;-71
2022/08/13 04:04:29;;;;;;;1.65;1.55;;;19.30;66.50;;;;;;2075115;28;20547;-71
2022/08/13 04:05:30;;;;;;;2.15;1.40;;;19.20;66.90;;;;;;2076671;28;20500;-71
2022/08/13 04:06:30;;;;;;;1.95;1.55;;;19.30;65.90;;;;;;2075671;28;20539;-71
2022/08/13 04:07:31;;;;;;;5.07;1.35;;;19.20;66.00;;;;;;2078231;28;20029;-71
2022/08/13 04:08:34;;;;;;;3.97;1.70;;;19.20;66.50;;;;;;2073767;28;20033;-71
2022/08/13 04:09:35;;;;;;;1.40;1.30;;;19.20;67.10;;;;;;2077320;28;20017;-71
2022/08/13 04:10:37;;;;;;;1.70;1.48;;;19.20;68.20;;;;;;2076998;28;20036;-71
2022/08/13 04:11:37;;;;;;;3.25;1.80;;;19.20;68.10;;;;;;2075285;28;20570;-71
2022/08/13 04:12:39;;;;;;;3.72;1.30;;;19.20;68.30;;;;;;2075345;28;20394;-71
2022/08/13 04:13:40;;;;;;;3.08;1.40;;;19.20;67.80;;;;;;2073749;28;20057;-71
2022/08/13 04:14:42;;;;;;;2.90;1.40;;;19.20;67.50;;;;;;2072818;28;20022;-71
2022/08/13 04:15:44;;;;;;;2.03;1.55;;;19.20;68.30;;;;;;2069365;28;20094;-71
2022/08/13 04:16:45;;;;;;;4.95;1.70;;;19.20;68.90;;;;;;2073056;28;20040;-71
2022/08/13 04:17:45;;;;;;;3.05;1.40;;;19.10;68.80;;;;;;2076187;28;20029;-71
2022/08/13 04:18:47;;;;;;;4.47;1.48;;;19.10;70.00;;;;;;2076603;28;20018;-71
2022/08/13 04:19:48;;;;;;;2.88;1.40;;;19.10;69.40;;;;;;2075053;28;20492;-71
2022/08/13 04:20:52;;;;;;;2.20;1.52;;;19.10;69.90;;;;;;2074660;28;20446;-71
2022/08/13 04:21:53;;;;;;;3.65;1.60;;;19.10;68.90;;;;;;2075983;28;20022;-71
2022/08/13 04:22:54;;;;;;;1.90;1.42;;;19.00;70.40;;;;;;2075538;28;20018;-71
2022/08/13 04:23:57;;;;;;;1.50;1.40;;;19.00;70.30;;;;;;2077610;28;20041;-71
2022/08/13 04:24:58;;;;;;;1.90;1.27;;;19.00;70.60;;;;;;2072317;28;20018;-71
2022/08/13 04:25:59;;;;;;;7.22;1.75;;;19.10;72.00;;;;;;2073073;28;20026;-71
2022/08/13 04:27:02;;;;;;;1.63;1.40;;;19.00;71.70;;;;;;2075027;28;20022;-71
2022/08/13 04:28:04;;;;;;;3.08;1.52;;;19.00;71.00;;;;;;2075616;28;20064;-71
2022/08/13 04:29:05;;;;;;;3.22;1.45;;;19.00;72.30;;;;;;2074678;28;20596;-71
2022/08/13 04:30:06;;;;;;;2.28;1.52;;;19.00;73.90;;;;;;2074151;28;20500;-71
2022/08/13 04:31:09;;;;;;;2.72;1.67;;;18.90;74.00;;;;;;2074983;28;20460;-70
2022/08/13 04:32:10;;;;;;;3.00;1.73;;;18.90;74.20;;;;;;2075900;28;20108;-70
2022/08/13 04:33:14;;;;;;;3.97;1.58;;;18.90;75.70;;;;;;2075706;28;20049;-71
2022/08/13 04:34:17;;;;;;;1.33;1.23;;;18.90;75.70;;;;;;2072358;28;20029;-71
2022/08/13 04:35:17;;;;;;;4.13;2.03;;;18.90;75.80;;;;;;2076284;28;20084;-71
2022/08/13 04:36:18;;;;;;;5.88;2.08;;;18.90;75.70;;;;;;2075107;28;20639;-71
2022/08/13 04:37:18;;;;;;;2.38;1.35;;;18.90;77.10;;;;;;2074596;28;20026;-71
2022/08/13 04:38:19;;;;;;;3.53;1.30;;;18.80;76.00;;;;;;2075497;28;20029;-71
2022/08/13 04:39:20;;;;;;;2.03;1.55;;;18.80;74.50;;;;;;2073530;28;20018;-71
2022/08/13 04:40:22;;;;;;;2.97;1.55;;;18.80;75.90;;;;;;2075939;28;20018;-71
2022/08/13 04:41:22;;;;;;;2.75;1.48;;;18.80;76.20;;;;;;2073266;28;20880;-70
2022/08/13 04:42:23;;;;;;;2.58;1.70;;;18.80;75.00;;;;;;2074288;28;20018;-70
2022/08/13 04:43:24;;;;;;;2.72;1.80;;;18.80;75.80;;;;;;2073744;28;20087;-70
2022/08/13 04:44:24;;;;;;;2.20;1.83;;;18.80;76.90;;;;;;2077462;28;20480;-71
2022/08/13 04:45:27;;;;;;;3.03;1.63;;;18.80;76.60;;;;;;2074497;28;20018;-71
2022/08/13 04:46:28;;;;;;;2.40;1.50;;;18.80;76.40;;;;;;2073075;28;20076;-71
2022/08/13 04:47:28;;;;;;;2.42;1.60;;;18.80;78.00;;;;;;2074540;28;20021;-71
2022/08/13 04:48:33;;;;;;;1.65;1.55;;;18.80;77.70;;;;;;2073522;28;20026;-71
2022/08/13 04:49:34;;;;;;;3.00;1.38;;;18.80;75.50;;;;;;2075800;28;20204;-71
2022/08/13 04:50:35;;;;;;;1.60;1.50;;;18.70;76.00;;;;;;2075335;28;20014;-71
2022/08/13 04:51:36;;;;;;;1.65;1.10;;;18.70;78.40;;;;;;2072642;28;20108;-71
2022/08/13 04:52:38;;;;;;;2.78;1.83;;;18.70;77.60;;;;;;2074944;28;20061;-71
2022/08/13 04:53:40;;;;;;;1.50;1.40;;;18.70;78.70;;;;;;2073602;28;20026;-71
2022/08/13 04:54:42;;;;;;;2.85;1.45;;;18.70;77.70;;;;;;2073463;28;20022;-71
2022/08/13 04:55:43;;;;;;;2.72;1.67;;;18.70;78.90;;;;;;2072441;28;20026;-71
2022/08/13 04:56:43;;;;;;;1.67;1.50;;;18.70;80.00;;;;;;2072710;28;20026;-71
2022/08/13 04:57:44;;;;;;;2.92;1.60;;;18.70;81.80;;;;;;2078434;28;20163;-71
2022/08/13 04:58:45;;;;;;;1.40;1.30;;;18.70;80.30;;;;;;2076599;28;20105;-71
2022/08/13 04:59:46;;;;;;;2.42;1.70;;;18.70;80.30;;;;;;2075954;28;20101;-70
2022/08/13 05:00:47;;;;;;;2.00;1.75;;;18.70;80.90;;;;;;2075172;28;20055;-70
2022/08/13 05:01:48;;;;;;;2.85;1.40;;;18.70;81.80;;;;;;2072559;28;20022;-70
2022/08/13 05:02:49;;;;;;;2.90;1.58;;;18.70;82.20;;;;;;2073042;28;20018;-70
2022/08/13 05:03:51;;;;;;;3.25;1.80;;;18.70;83.20;;;;;;2073583;28;20106;-70
2022/08/13 05:04:54;;;;;;;6.25;2.35;;;18.70;83.80;;;;;;2073619;28;20014;-70
2022/08/13 05:05:55;;;;;;;1.75;1.23;;;18.70;85.00;;;;;;2073859;28;20026;-70
2022/08/13 05:06:56;;;;;;;2.63;1.63;;;18.70;85.00;;;;;;2074442;28;20030;-70
2022/08/13 05:07:57;;;;;;;5.78;1.63;;;18.70;84.90;;;;;;2074298;28;20022;-70
2022/08/13 05:09:02;;;;;;;1.65;1.55;;;18.70;84.50;;;;;;2075899;28;20165;-70
2022/08/13 05:10:05;;;;;;;2.28;1.60;;;18.70;83.30;;;;;;2073478;28;20022;-70
2022/08/13 05:11:07;;;;;;;2.50;1.75;;;18.70;84.70;;;;;;2071331;28;20033;-70
2022/08/13 05:12:08;;;;;;;3.53;1.58;;;18.70;85.70;;;;;;2074516;28;20543;-70
2022/08/13 05:13:20;;;;;;;3.63;1.77;;;18.70;87.30;;;;;;2074314;28;20030;-70
2022/08/13 05:14:21;;;;;;;1.58;1.48;;;18.70;86.00;;;;;;2073846;28;20436;-70
2022/08/13 05:15:21;;;;;;;1.88;1.52;;;18.70;87.10;;;;;;2074610;28;20095;-70
2022/08/13 05:16:22;;;;;;;2.80;1.48;;;18.60;87.70;;;;;;2072792;28;20084;-70
2022/08/13 05:17:23;;;;;;;2.17;1.70;;;18.70;86.10;;;;;;2076298;28;20050;-70
2022/08/13 05:18:25;;;;;;;3.67;1.30;;;18.70;88.00;;;;;;2074362;28;20049;-70
2022/08/13 05:19:26;;;;;;;3.55;1.67;;;18.70;87.50;;;;;;2071229;28;20021;-70
2022/08/13 05:20:27;;;;;;;3.42;1.67;;;18.70;86.30;;;;;;2073643;28;20025;-70
2022/08/13 05:21:28;;;;;;;1.50;1.40;;;18.70;86.00;;;;;;2075171;28;20020;-70
2022/08/13 05:22:29;;;;;;;2.22;1.63;;;18.70;88.40;;;;;;2073904;28;20021;-70
2022/08/13 05:23:31;;;;;;;1.75;1.65;;;18.70;89.30;;;;;;2073706;28;20032;-70
2022/08/13 05:24:32;;;;;;;2.42;1.77;;;18.80;90.40;;;;;;2074966;28;20025;-70
2022/08/13 05:25:33;;;;;;;2.08;1.27;;;18.80;91.20;;;;;;2073515;28;20028;-70
2022/08/13 05:26:33;;;;;;;3.10;1.63;;;18.80;91.50;;;;;;2074753;28;20041;-70
2022/08/13 05:27:34;;;;;;;1.40;1.27;;;18.90;91.90;;;;;;2074737;28;20030;-71
2022/08/13 05:28:35;;;;;;;8.07;1.40;;;18.90;92.60;;;;;;2073406;28;20030;-71
2022/08/13 05:29:38;;;;;;;2.17;1.60;;;19.00;93.10;;;;;;2074749;28;20028;-71
2022/08/13 05:30:39;;;;;;;3.08;1.25;;;19.00;91.80;;;;;;2072523;28;20022;-71
2022/08/13 05:31:40;;;;;;;2.72;1.30;;;19.10;92.00;;;;;;2073499;28;20079;-71
2022/08/13 05:32:41;;;;;;;3.42;1.48;;;19.20;91.20;;;;;;2071384;28;20100;-71